sensor_id;sensor_type;location;lat;lon;timestamp;noise_LAeq;noise_LA_min;noise_LA_max;noise_LA01;noise_LA95
72276;Laerm;61204;49.980;8.358;2024-01-06T00:01:23;54.64;49.04;60.39;;
72276;Laerm;61204;49.980;8.358;2024-01-06T00:03:51;54.19;49.11;62.72;;
72276;Laerm;61204;49.980;8.358;2024-01-06T00:06:18;54.10;48.68;61.82;;
72276;Laerm;61204;49.980;8.358;2024-01-06T00:08:44;54.69;49.75;65.81;;
72276;Laerm;61204;49.980;8.358;2024-01-06T00:11:10;53.91;48.12;60.65;;
72276;Laerm;61204;49.980;8.358;2024-01-06T00:13:35;53.79;46.82;60.83;;
72276;Laerm;61204;49.980;8.358;2024-01-06T00:16:01;50.96;44.94;58.06;;
72276;Laerm;61204;49.980;8.358;2024-01-06T00:18:27;47.27;42.86;57.51;;
72276;Laerm;61204;49.980;8.358;2024-01-06T00:20:52;46.86;42.33;53.37;;
72276;Laerm;61204;49.980;8.358;2024-01-06T00:23:18;48.23;42.65;56.60;;
72276;Laerm;61204;49.980;8.358;2024-01-06T00:25:43;45.42;42.02;51.21;;
72276;Laerm;61204;49.980;8.358;2024-01-06T00:28:09;46.10;41.46;54.94;;
72276;Laerm;61204;49.980;8.358;2024-01-06T00:30:37;46.49;42.00;55.23;;
72276;Laerm;61204;49.980;8.358;2024-01-06T00:33:03;47.79;42.40;55.09;;
72276;Laerm;61204;49.980;8.358;2024-01-06T00:35:29;48.21;43.52;56.76;;
72276;Laerm;61204;49.980;8.358;2024-01-06T00:37:54;47.13;42.24;52.75;;
72276;Laerm;61204;49.980;8.358;2024-01-06T00:40:20;48.82;43.90;59.10;;
72276;Laerm;61204;49.980;8.358;2024-01-06T00:42:48;48.41;43.94;54.74;;
72276;Laerm;61204;49.980;8.358;2024-01-06T00:45:14;49.96;43.53;59.58;;
72276;Laerm;61204;49.980;8.358;2024-01-06T00:47:39;51.12;44.55;58.13;;
72276;Laerm;61204;49.980;8.358;2024-01-06T00:50:06;51.55;45.86;62.81;;
72276;Laerm;61204;49.980;8.358;2024-01-06T00:52:31;53.00;44.84;65.25;;
72276;Laerm;61204;49.980;8.358;2024-01-06T00:54:57;50.79;44.53;58.61;;
72276;Laerm;61204;49.980;8.358;2024-01-06T00:57:22;51.39;42.41;58.89;;
72276;Laerm;61204;49.980;8.358;2024-01-06T00:59:50;51.19;42.55;59.10;;
72276;Laerm;61204;49.980;8.358;2024-01-06T01:02:16;50.39;42.88;58.30;;
72276;Laerm;61204;49.980;8.358;2024-01-06T01:04:41;49.12;42.93;57.63;;
72276;Laerm;61204;49.980;8.358;2024-01-06T01:07:07;51.63;46.17;56.96;;
72276;Laerm;61204;49.980;8.358;2024-01-06T01:09:37;51.42;46.16;61.00;;
72276;Laerm;61204;49.980;8.358;2024-01-06T01:12:03;54.56;47.69;63.30;;
72276;Laerm;61204;49.980;8.358;2024-01-06T01:14:29;53.02;45.41;60.31;;
72276;Laerm;61204;49.980;8.358;2024-01-06T01:16:54;51.09;43.69;62.19;;
72276;Laerm;61204;49.980;8.358;2024-01-06T01:19:20;50.11;41.63;62.52;;
72276;Laerm;61204;49.980;8.358;2024-01-06T01:21:48;51.91;43.52;64.91;;
72276;Laerm;61204;49.980;8.358;2024-01-06T01:24:14;54.81;49.07;69.55;;
72276;Laerm;61204;49.980;8.358;2024-01-06T01:26:39;53.50;43.58;66.56;;
72276;Laerm;61204;49.980;8.358;2024-01-06T01:29:05;49.85;43.98;62.67;;
72276;Laerm;61204;49.980;8.358;2024-01-06T01:31:30;52.76;47.80;59.35;;
72276;Laerm;61204;49.980;8.358;2024-01-06T01:33:58;50.20;45.71;57.50;;
72276;Laerm;61204;49.980;8.358;2024-01-06T01:36:23;50.45;45.78;56.85;;
72276;Laerm;61204;49.980;8.358;2024-01-06T01:38:49;48.11;42.11;55.73;;
72276;Laerm;61204;49.980;8.358;2024-01-06T01:41:14;50.07;44.11;62.49;;
72276;Laerm;61204;49.980;8.358;2024-01-06T01:43:42;50.64;43.57;57.02;;
72276;Laerm;61204;49.980;8.358;2024-01-06T01:46:08;50.40;43.88;59.30;;
72276;Laerm;61204;49.980;8.358;2024-01-06T01:48:36;48.53;42.18;54.50;;
72276;Laerm;61204;49.980;8.358;2024-01-06T01:51:02;48.78;41.12;58.82;;
72276;Laerm;61204;49.980;8.358;2024-01-06T01:53:30;49.84;44.54;57.44;;
72276;Laerm;61204;49.980;8.358;2024-01-06T01:55:57;48.44;40.79;62.15;;
72276;Laerm;61204;49.980;8.358;2024-01-06T01:58:23;49.31;44.82;54.23;;
72276;Laerm;61204;49.980;8.358;2024-01-06T02:00:49;47.75;42.03;54.06;;
72276;Laerm;61204;49.980;8.358;2024-01-06T02:03:16;46.98;40.47;54.85;;
72276;Laerm;61204;49.980;8.358;2024-01-06T02:05:42;45.79;39.83;53.67;;
72276;Laerm;61204;49.980;8.358;2024-01-06T02:08:08;45.79;40.61;52.15;;
72276;Laerm;61204;49.980;8.358;2024-01-06T02:10:34;48.21;43.46;53.97;;
72276;Laerm;61204;49.980;8.358;2024-01-06T02:13:12;49.43;43.57;57.88;;
72276;Laerm;61204;49.980;8.358;2024-01-06T02:15:38;49.97;43.39;59.65;;
72276;Laerm;61204;49.980;8.358;2024-01-06T02:18:04;47.01;41.12;55.87;;
72276;Laerm;61204;49.980;8.358;2024-01-06T02:20:31;47.85;42.71;55.71;;
72276;Laerm;61204;49.980;8.358;2024-01-06T02:22:57;48.48;41.19;55.53;;
72276;Laerm;61204;49.980;8.358;2024-01-06T02:25:27;49.88;40.80;57.18;;
72276;Laerm;61204;49.980;8.358;2024-01-06T02:27:52;49.72;44.10;57.22;;
72276;Laerm;61204;49.980;8.358;2024-01-06T02:30:24;50.77;43.52;57.09;;
72276;Laerm;61204;49.980;8.358;2024-01-06T02:32:50;50.40;45.38;55.75;;
72276;Laerm;61204;49.980;8.358;2024-01-06T02:35:20;52.74;45.72;66.20;;
72276;Laerm;61204;49.980;8.358;2024-01-06T02:37:46;49.39;44.75;59.74;;
72276;Laerm;61204;49.980;8.358;2024-01-06T02:40:13;51.59;46.03;59.45;;
72276;Laerm;61204;49.980;8.358;2024-01-06T02:42:39;50.03;43.98;61.85;;
72276;Laerm;61204;49.980;8.358;2024-01-06T02:45:07;47.14;42.74;61.12;;
72276;Laerm;61204;49.980;8.358;2024-01-06T02:47:35;44.15;39.67;54.52;;
72276;Laerm;61204;49.980;8.358;2024-01-06T02:50:00;46.01;40.34;52.55;;
72276;Laerm;61204;49.980;8.358;2024-01-06T02:52:26;46.06;41.10;51.38;;
72276;Laerm;61204;49.980;8.358;2024-01-06T02:54:51;45.39;40.19;50.85;;
72276;Laerm;61204;49.980;8.358;2024-01-06T02:57:20;46.40;41.00;51.27;;
72276;Laerm;61204;49.980;8.358;2024-01-06T02:59:45;45.14;39.72;50.82;;
72276;Laerm;61204;49.980;8.358;2024-01-06T03:02:11;45.65;40.29;52.36;;
72276;Laerm;61204;49.980;8.358;2024-01-06T03:04:37;48.31;39.39;62.61;;
72276;Laerm;61204;49.980;8.358;2024-01-06T03:07:03;45.74;39.85;55.07;;
72276;Laerm;61204;49.980;8.358;2024-01-06T03:09:28;45.97;41.13;54.12;;
72276;Laerm;61204;49.980;8.358;2024-01-06T03:11:56;46.72;38.48;56.44;;
72276;Laerm;61204;49.980;8.358;2024-01-06T03:14:22;52.38;41.67;66.64;;
72276;Laerm;61204;49.980;8.358;2024-01-06T03:16:48;50.46;44.40;54.90;;
72276;Laerm;61204;49.980;8.358;2024-01-06T03:19:13;47.32;41.23;53.41;;
72276;Laerm;61204;49.980;8.358;2024-01-06T03:21:39;46.25;40.69;51.95;;
72276;Laerm;61204;49.980;8.358;2024-01-06T03:24:07;45.78;39.72;56.56;;
72276;Laerm;61204;49.980;8.358;2024-01-06T03:26:34;47.84;36.85;60.87;;
72276;Laerm;61204;49.980;8.358;2024-01-06T03:29:02;41.04;36.10;55.42;;
72276;Laerm;61204;49.980;8.358;2024-01-06T03:31:29;43.37;35.39;76.76;;
72276;Laerm;61204;49.980;8.358;2024-01-06T03:33:55;40.08;35.80;67.28;;
72276;Laerm;61204;49.980;8.358;2024-01-06T03:36:21;43.03;35.68;63.37;;
72276;Laerm;61204;49.980;8.358;2024-01-06T03:38:58;40.05;35.77;57.89;;
72276;Laerm;61204;49.980;8.358;2024-01-06T03:41:25;40.96;36.69;47.55;;
72276;Laerm;61204;49.980;8.358;2024-01-06T03:43:51;40.60;36.88;46.79;;
72276;Laerm;61204;49.980;8.358;2024-01-06T03:46:19;40.60;36.95;47.03;;
72276;Laerm;61204;49.980;8.358;2024-01-06T03:48:44;46.32;37.33;59.35;;
72276;Laerm;61204;49.980;8.358;2024-01-06T03:51:10;42.04;37.93;56.20;;
72276;Laerm;61204;49.980;8.358;2024-01-06T03:53:36;43.59;39.12;57.73;;
72276;Laerm;61204;49.980;8.358;2024-01-06T03:56:04;45.63;40.76;51.69;;
72276;Laerm;61204;49.980;8.358;2024-01-06T03:58:29;46.72;41.62;51.75;;
72276;Laerm;61204;49.980;8.358;2024-01-06T04:00:55;45.97;41.24;52.01;;
72276;Laerm;61204;49.980;8.358;2024-01-06T04:03:20;45.11;39.87;52.37;;
72276;Laerm;61204;49.980;8.358;2024-01-06T04:05:48;44.31;40.37;49.28;;
72276;Laerm;61204;49.980;8.358;2024-01-06T04:08:14;45.13;39.48;50.42;;
72276;Laerm;61204;49.980;8.358;2024-01-06T04:10:39;44.98;40.64;51.91;;
72276;Laerm;61204;49.980;8.358;2024-01-06T04:13:10;45.56;41.49;51.74;;
72276;Laerm;61204;49.980;8.358;2024-01-06T04:15:36;43.28;39.53;51.24;;
72276;Laerm;61204;49.980;8.358;2024-01-06T04:18:04;45.19;39.96;50.33;;
72276;Laerm;61204;49.980;8.358;2024-01-06T04:20:33;44.93;40.23;48.92;;
72276;Laerm;61204;49.980;8.358;2024-01-06T04:23:02;44.56;40.14;51.22;;
72276;Laerm;61204;49.980;8.358;2024-01-06T04:25:27;43.51;39.64;50.42;;
72276;Laerm;61204;49.980;8.358;2024-01-06T04:27:53;44.67;41.51;48.65;;
72276;Laerm;61204;49.980;8.358;2024-01-06T04:30:21;45.65;42.37;49.96;;
72276;Laerm;61204;49.980;8.358;2024-01-06T04:32:47;44.65;41.61;48.58;;
72276;Laerm;61204;49.980;8.358;2024-01-06T04:35:17;45.33;40.67;50.64;;
72276;Laerm;61204;49.980;8.358;2024-01-06T04:37:43;45.94;41.62;50.67;;
72276;Laerm;61204;49.980;8.358;2024-01-06T04:40:10;45.76;41.75;50.98;;
72276;Laerm;61204;49.980;8.358;2024-01-06T04:42:36;45.06;41.05;54.40;;
72276;Laerm;61204;49.980;8.358;2024-01-06T04:45:04;45.18;39.57;49.91;;
72276;Laerm;61204;49.980;8.358;2024-01-06T04:47:30;46.13;40.00;50.85;;
72276;Laerm;61204;49.980;8.358;2024-01-06T04:49:56;46.08;41.14;53.86;;
72276;Laerm;61204;49.980;8.358;2024-01-06T04:52:22;47.36;42.18;55.43;;
72276;Laerm;61204;49.980;8.358;2024-01-06T04:54:48;47.34;42.17;55.16;;
72276;Laerm;61204;49.980;8.358;2024-01-06T04:57:13;48.38;43.55;54.11;;
72276;Laerm;61204;49.980;8.358;2024-01-06T04:59:40;49.34;44.33;56.26;;
72276;Laerm;61204;49.980;8.358;2024-01-06T05:02:06;48.09;43.24;56.99;;
72276;Laerm;61204;49.980;8.358;2024-01-06T05:04:32;48.60;44.06;53.54;;
72276;Laerm;61204;49.980;8.358;2024-01-06T05:06:58;49.34;45.02;53.80;;
72276;Laerm;61204;49.980;8.358;2024-01-06T05:09:27;49.08;43.34;55.19;;
72276;Laerm;61204;49.980;8.358;2024-01-06T05:11:53;48.98;44.09;54.61;;
72276;Laerm;61204;49.980;8.358;2024-01-06T05:14:18;49.41;45.05;54.33;;
72276;Laerm;61204;49.980;8.358;2024-01-06T05:16:44;48.29;40.34;55.15;;
72276;Laerm;61204;49.980;8.358;2024-01-06T05:19:12;49.78;44.73;55.50;;
72276;Laerm;61204;49.980;8.358;2024-01-06T05:21:37;48.62;41.85;54.95;;
72276;Laerm;61204;49.980;8.358;2024-01-06T05:24:05;47.41;42.23;53.57;;
72276;Laerm;61204;49.980;8.358;2024-01-06T05:26:31;49.62;44.71;57.39;;
72276;Laerm;61204;49.980;8.358;2024-01-06T05:28:56;48.72;44.68;53.39;;
72276;Laerm;61204;49.980;8.358;2024-01-06T05:31:22;48.91;44.40;54.03;;
72276;Laerm;61204;49.980;8.358;2024-01-06T05:33:47;50.27;44.97;58.97;;
72276;Laerm;61204;49.980;8.358;2024-01-06T05:36:13;49.65;45.32;55.54;;
72276;Laerm;61204;49.980;8.358;2024-01-06T05:38:39;46.86;43.45;52.04;;
72276;Laerm;61204;49.980;8.358;2024-01-06T05:41:06;47.22;42.65;53.37;;
72276;Laerm;61204;49.980;8.358;2024-01-06T05:43:32;47.03;42.84;51.65;;
72276;Laerm;61204;49.980;8.358;2024-01-06T05:45:57;47.84;44.16;53.64;;
72276;Laerm;61204;49.980;8.358;2024-01-06T05:48:23;48.66;43.77;54.37;;
72276;Laerm;61204;49.980;8.358;2024-01-06T05:50:49;49.43;43.91;55.68;;
72276;Laerm;61204;49.980;8.358;2024-01-06T05:53:14;49.13;43.44;55.83;;
72276;Laerm;61204;49.980;8.358;2024-01-06T05:55:43;51.07;46.08;57.73;;
72276;Laerm;61204;49.980;8.358;2024-01-06T05:58:12;51.40;45.50;57.16;;
72276;Laerm;61204;49.980;8.358;2024-01-06T06:00:38;50.96;45.39;56.04;;
72276;Laerm;61204;49.980;8.358;2024-01-06T06:03:04;51.76;46.34;64.07;;
72276;Laerm;61204;49.980;8.358;2024-01-06T06:05:32;50.52;46.35;56.48;;
72276;Laerm;61204;49.980;8.358;2024-01-06T06:07:58;51.79;45.49;59.45;;
72276;Laerm;61204;49.980;8.358;2024-01-06T06:10:26;51.02;46.59;55.70;;
72276;Laerm;61204;49.980;8.358;2024-01-06T06:13:06;50.40;46.00;56.59;;
72276;Laerm;61204;49.980;8.358;2024-01-06T06:15:32;49.93;45.58;54.26;;
72276;Laerm;61204;49.980;8.358;2024-01-06T06:17:58;50.31;45.12;57.12;;
72276;Laerm;61204;49.980;8.358;2024-01-06T06:20:27;51.76;47.16;57.37;;
72276;Laerm;61204;49.980;8.358;2024-01-06T06:22:53;51.30;47.22;56.36;;
72276;Laerm;61204;49.980;8.358;2024-01-06T06:25:20;52.05;47.83;58.84;;
72276;Laerm;61204;49.980;8.358;2024-01-06T06:27:48;50.16;45.75;54.14;;
72276;Laerm;61204;49.980;8.358;2024-01-06T06:30:14;51.99;48.18;58.56;;
72276;Laerm;61204;49.980;8.358;2024-01-06T06:32:40;49.94;45.88;54.52;;
72276;Laerm;61204;49.980;8.358;2024-01-06T06:35:06;51.28;47.02;56.98;;
72276;Laerm;61204;49.980;8.358;2024-01-06T06:37:32;51.43;46.28;55.56;;
72276;Laerm;61204;49.980;8.358;2024-01-06T06:39:58;51.66;47.30;57.03;;
72276;Laerm;61204;49.980;8.358;2024-01-06T06:42:25;51.33;47.66;58.53;;
72276;Laerm;61204;49.980;8.358;2024-01-06T06:44:51;50.95;46.80;56.95;;
72276;Laerm;61204;49.980;8.358;2024-01-06T06:47:17;50.50;46.77;69.73;;
72276;Laerm;61204;49.980;8.358;2024-01-06T06:49:44;51.53;47.13;56.85;;
72276;Laerm;61204;49.980;8.358;2024-01-06T06:52:10;50.26;45.77;54.86;;
72276;Laerm;61204;49.980;8.358;2024-01-06T06:54:37;52.59;46.46;61.18;;
72276;Laerm;61204;49.980;8.358;2024-01-06T06:57:03;52.44;48.13;58.01;;
72276;Laerm;61204;49.980;8.358;2024-01-06T06:59:29;51.35;46.33;55.52;;
72276;Laerm;61204;49.980;8.358;2024-01-06T07:01:54;50.61;45.72;57.60;;
72276;Laerm;61204;49.980;8.358;2024-01-06T07:04:20;52.75;47.27;60.35;;
72276;Laerm;61204;49.980;8.358;2024-01-06T07:06:46;52.71;47.35;58.02;;
72276;Laerm;61204;49.980;8.358;2024-01-06T07:09:11;52.89;48.59;66.08;;
72276;Laerm;61204;49.980;8.358;2024-01-06T07:11:37;52.73;48.82;57.34;;
72276;Laerm;61204;49.980;8.358;2024-01-06T07:14:02;53.53;49.52;61.01;;
72276;Laerm;61204;49.980;8.358;2024-01-06T07:16:30;52.57;49.15;58.13;;
72276;Laerm;61204;49.980;8.358;2024-01-06T07:18:56;53.37;49.29;59.30;;
72276;Laerm;61204;49.980;8.358;2024-01-06T07:21:21;53.20;48.35;58.13;;
72276;Laerm;61204;49.980;8.358;2024-01-06T07:23:48;53.44;48.24;60.66;;
72276;Laerm;61204;49.980;8.358;2024-01-06T07:26:14;55.27;48.84;66.63;;
72276;Laerm;61204;49.980;8.358;2024-01-06T07:28:39;54.12;49.72;59.04;;
72276;Laerm;61204;49.980;8.358;2024-01-06T07:31:05;54.22;49.38;59.64;;
72276;Laerm;61204;49.980;8.358;2024-01-06T07:33:31;55.62;50.47;62.26;;
72276;Laerm;61204;49.980;8.358;2024-01-06T07:35:56;56.25;51.97;62.33;;
72276;Laerm;61204;49.980;8.358;2024-01-06T07:38:22;56.30;51.56;62.25;;
72276;Laerm;61204;49.980;8.358;2024-01-06T07:40:47;54.47;48.92;61.29;;
72276;Laerm;61204;49.980;8.358;2024-01-06T07:43:13;53.95;49.68;58.49;;
72276;Laerm;61204;49.980;8.358;2024-01-06T07:45:41;56.42;50.93;63.59;;
72276;Laerm;61204;49.980;8.358;2024-01-06T07:48:08;57.03;51.20;77.16;;
72276;Laerm;61204;49.980;8.358;2024-01-06T07:50:33;56.18;51.35;72.28;;
72276;Laerm;61204;49.980;8.358;2024-01-06T07:53:01;54.59;49.46;60.62;;
72276;Laerm;61204;49.980;8.358;2024-01-06T07:55:27;54.84;50.45;60.31;;
72276;Laerm;61204;49.980;8.358;2024-01-06T07:57:54;54.07;49.42;60.11;;
72276;Laerm;61204;49.980;8.358;2024-01-06T08:00:20;55.12;49.34;73.18;;
72276;Laerm;61204;49.980;8.358;2024-01-06T08:02:46;53.49;49.55;65.67;;
72276;Laerm;61204;49.980;8.358;2024-01-06T08:05:12;54.10;49.31;61.07;;
72276;Laerm;61204;49.980;8.358;2024-01-06T08:07:39;55.30;50.06;61.15;;
72276;Laerm;61204;49.980;8.358;2024-01-06T08:10:06;54.22;49.73;58.76;;
72276;Laerm;61204;49.980;8.358;2024-01-06T08:12:32;56.02;50.98;62.02;;
72276;Laerm;61204;49.980;8.358;2024-01-06T08:14:57;54.61;51.05;65.94;;
72276;Laerm;61204;49.980;8.358;2024-01-06T08:17:28;56.07;49.92;63.88;;
72276;Laerm;61204;49.980;8.358;2024-01-06T08:19:53;57.25;51.05;72.92;;
72276;Laerm;61204;49.980;8.358;2024-01-06T08:22:19;54.69;49.78;65.54;;
72276;Laerm;61204;49.980;8.358;2024-01-06T08:24:44;55.16;50.06;62.21;;
72276;Laerm;61204;49.980;8.358;2024-01-06T08:27:12;53.88;49.77;61.84;;
72276;Laerm;61204;49.980;8.358;2024-01-06T08:29:38;54.30;50.15;57.76;;
72276;Laerm;61204;49.980;8.358;2024-01-06T08:32:04;53.38;49.44;61.08;;
72276;Laerm;61204;49.980;8.358;2024-01-06T08:34:30;53.62;49.26;57.92;;
72276;Laerm;61204;49.980;8.358;2024-01-06T08:36:55;54.13;49.72;64.96;;
72276;Laerm;61204;49.980;8.358;2024-01-06T08:39:24;54.47;51.07;59.39;;
72276;Laerm;61204;49.980;8.358;2024-01-06T08:41:50;53.56;48.68;58.92;;
72276;Laerm;61204;49.980;8.358;2024-01-06T08:44:16;54.25;48.21;63.10;;
72276;Laerm;61204;49.980;8.358;2024-01-06T08:46:41;54.29;49.75;63.89;;
72276;Laerm;61204;49.980;8.358;2024-01-06T08:49:09;55.92;49.67;66.76;;
72276;Laerm;61204;49.980;8.358;2024-01-06T08:51:35;53.65;49.43;60.50;;
72276;Laerm;61204;49.980;8.358;2024-01-06T08:54:03;54.28;49.33;61.22;;
72276;Laerm;61204;49.980;8.358;2024-01-06T08:56:34;53.92;50.20;58.08;;
72276;Laerm;61204;49.980;8.358;2024-01-06T08:59:00;54.22;49.41;65.30;;
72276;Laerm;61204;49.980;8.358;2024-01-06T09:01:25;54.74;49.62;61.17;;
72276;Laerm;61204;49.980;8.358;2024-01-06T09:03:51;55.19;50.03;62.92;;
72276;Laerm;61204;49.980;8.358;2024-01-06T09:06:16;52.83;47.68;62.11;;
72276;Laerm;61204;49.980;8.358;2024-01-06T09:08:42;52.46;47.92;62.29;;
72276;Laerm;61204;49.980;8.358;2024-01-06T09:11:07;52.67;47.96;58.56;;
72276;Laerm;61204;49.980;8.358;2024-01-06T09:13:33;53.28;48.34;61.80;;
72276;Laerm;61204;49.980;8.358;2024-01-06T09:15:59;52.29;47.34;60.37;;
72276;Laerm;61204;49.980;8.358;2024-01-06T09:18:26;53.95;47.70;65.11;;
72276;Laerm;61204;49.980;8.358;2024-01-06T09:20:53;54.24;49.37;61.15;;
72276;Laerm;61204;49.980;8.358;2024-01-06T09:23:20;53.56;48.16;61.45;;
72276;Laerm;61204;49.980;8.358;2024-01-06T09:25:46;55.88;50.68;75.92;;
72276;Laerm;61204;49.980;8.358;2024-01-06T09:28:15;55.52;51.01;61.64;;
72276;Laerm;61204;49.980;8.358;2024-01-06T09:30:41;55.24;50.39;61.94;;
72276;Laerm;61204;49.980;8.358;2024-01-06T09:33:07;55.56;49.94;61.20;;
72276;Laerm;61204;49.980;8.358;2024-01-06T09:35:35;54.93;49.91;63.52;;
72276;Laerm;61204;49.980;8.358;2024-01-06T09:38:01;55.82;51.50;66.55;;
72276;Laerm;61204;49.980;8.358;2024-01-06T09:40:31;56.08;51.17;63.79;;
72276;Laerm;61204;49.980;8.358;2024-01-06T09:42:56;57.06;51.90;65.69;;
72276;Laerm;61204;49.980;8.358;2024-01-06T09:45:22;55.61;51.38;63.30;;
72276;Laerm;61204;49.980;8.358;2024-01-06T09:47:51;56.41;51.99;62.12;;
72276;Laerm;61204;49.980;8.358;2024-01-06T09:50:21;55.43;51.07;61.93;;
72276;Laerm;61204;49.980;8.358;2024-01-06T09:52:49;64.24;52.29;84.79;;
72276;Laerm;61204;49.980;8.358;2024-01-06T09:55:29;56.68;52.75;61.66;;
72276;Laerm;61204;49.980;8.358;2024-01-06T09:57:55;56.15;52.39;60.57;;
72276;Laerm;61204;49.980;8.358;2024-01-06T10:00:22;56.82;52.78;71.33;;
72276;Laerm;61204;49.980;8.358;2024-01-06T10:02:49;57.23;52.58;63.82;;
72276;Laerm;61204;49.980;8.358;2024-01-06T10:05:18;56.60;51.80;61.27;;
72276;Laerm;61204;49.980;8.358;2024-01-06T10:07:45;55.54;51.29;60.65;;
72276;Laerm;61204;49.980;8.358;2024-01-06T10:10:12;56.26;51.99;62.68;;
72276;Laerm;61204;49.980;8.358;2024-01-06T10:12:42;55.77;50.50;66.91;;
72276;Laerm;61204;49.980;8.358;2024-01-06T10:15:11;54.14;49.80;62.87;;
72276;Laerm;61204;49.980;8.358;2024-01-06T10:17:39;56.68;50.42;72.49;;
72276;Laerm;61204;49.980;8.358;2024-01-06T10:20:11;55.79;50.01;69.90;;
72276;Laerm;61204;49.980;8.358;2024-01-06T10:22:40;53.97;48.91;65.67;;
72276;Laerm;61204;49.980;8.358;2024-01-06T10:25:14;53.75;48.19;60.96;;
72276;Laerm;61204;49.980;8.358;2024-01-06T10:27:41;54.96;50.06;81.37;;
72276;Laerm;61204;49.980;8.358;2024-01-06T10:30:10;53.36;49.11;65.16;;
72276;Laerm;61204;49.980;8.358;2024-01-06T10:32:36;53.75;49.13;69.95;;
72276;Laerm;61204;49.980;8.358;2024-01-06T10:35:04;55.56;49.78;65.51;;
72276;Laerm;61204;49.980;8.358;2024-01-06T10:37:31;54.12;49.06;62.72;;
72276;Laerm;61204;49.980;8.358;2024-01-06T10:40:14;52.05;47.85;61.88;;
72276;Laerm;61204;49.980;8.358;2024-01-06T10:42:46;52.36;48.59;58.32;;
72276;Laerm;61204;49.980;8.358;2024-01-06T10:45:14;53.84;48.16;68.91;;
72276;Laerm;61204;49.980;8.358;2024-01-06T10:47:43;54.25;46.93;71.74;;
72276;Laerm;61204;49.980;8.358;2024-01-06T10:50:09;52.77;47.22;61.22;;
72276;Laerm;61204;49.980;8.358;2024-01-06T10:52:38;52.83;47.37;61.39;;
72276;Laerm;61204;49.980;8.358;2024-01-06T10:55:05;52.37;48.27;65.55;;
72276;Laerm;61204;49.980;8.358;2024-01-06T10:57:32;54.47;47.50;62.32;;
72276;Laerm;61204;49.980;8.358;2024-01-06T11:00:00;54.60;48.68;63.17;;
72276;Laerm;61204;49.980;8.358;2024-01-06T11:02:29;53.10;49.24;60.24;;
72276;Laerm;61204;49.980;8.358;2024-01-06T11:05:02;50.67;47.55;54.26;;
72276;Laerm;61204;49.980;8.358;2024-01-06T11:07:29;51.02;46.54;55.20;;
72276;Laerm;61204;49.980;8.358;2024-01-06T11:10:15;52.32;46.08;67.99;;
72276;Laerm;61204;49.980;8.358;2024-01-06T11:12:44;54.60;47.87;65.96;;
72276;Laerm;61204;49.980;8.358;2024-01-06T11:15:10;54.22;47.82;61.45;;
72276;Laerm;61204;49.980;8.358;2024-01-06T11:17:55;53.81;46.69;66.12;;
72276;Laerm;61204;49.980;8.358;2024-01-06T11:20:27;52.78;48.76;62.40;;
72276;Laerm;61204;49.980;8.358;2024-01-06T11:22:53;51.99;48.18;57.98;;
72276;Laerm;61204;49.980;8.358;2024-01-06T11:25:21;52.81;47.89;62.04;;
72276;Laerm;61204;49.980;8.358;2024-01-06T11:27:49;56.19;47.14;64.53;;
72276;Laerm;61204;49.980;8.358;2024-01-06T11:30:25;53.98;47.60;62.81;;
72276;Laerm;61204;49.980;8.358;2024-01-06T11:32:56;52.47;47.01;59.48;;
72276;Laerm;61204;49.980;8.358;2024-01-06T11:35:27;50.89;46.56;60.53;;
72276;Laerm;61204;49.980;8.358;2024-01-06T11:37:57;51.54;46.95;60.83;;
72276;Laerm;61204;49.980;8.358;2024-01-06T11:40:34;53.62;46.66;62.93;;
72276;Laerm;61204;49.980;8.358;2024-01-06T11:43:12;54.16;46.91;63.69;;
72276;Laerm;61204;49.980;8.358;2024-01-06T11:45:41;50.20;44.77;61.34;;
72276;Laerm;61204;49.980;8.358;2024-01-06T11:48:11;50.34;44.67;59.21;;
72276;Laerm;61204;49.980;8.358;2024-01-06T11:50:40;49.40;45.00;59.08;;
72276;Laerm;61204;49.980;8.358;2024-01-06T11:53:09;49.38;44.71;60.59;;
72276;Laerm;61204;49.980;8.358;2024-01-06T11:55:35;50.17;45.19;60.54;;
72276;Laerm;61204;49.980;8.358;2024-01-06T11:58:06;51.80;45.15;62.34;;
72276;Laerm;61204;49.980;8.358;2024-01-06T12:00:34;61.06;44.90;75.11;;
72276;Laerm;61204;49.980;8.358;2024-01-06T12:03:07;64.53;42.53;76.93;;
72276;Laerm;61204;49.980;8.358;2024-01-06T12:05:33;45.23;41.26;58.88;;
72276;Laerm;61204;49.980;8.358;2024-01-06T12:08:02;46.94;41.27;59.00;;
72276;Laerm;61204;49.980;8.358;2024-01-06T12:10:33;47.18;42.55;54.98;;
72276;Laerm;61204;49.980;8.358;2024-01-06T12:13:05;50.76;43.40;59.75;;
72276;Laerm;61204;49.980;8.358;2024-01-06T12:15:34;50.72;44.25;59.65;;
72276;Laerm;61204;49.980;8.358;2024-01-06T12:18:03;51.66;44.89;62.62;;
72276;Laerm;61204;49.980;8.358;2024-01-06T12:20:29;49.38;44.20;59.78;;
72276;Laerm;61204;49.980;8.358;2024-01-06T12:22:55;52.70;43.82;66.76;;
72276;Laerm;61204;49.980;8.358;2024-01-06T12:25:25;52.11;43.56;63.06;;
72276;Laerm;61204;49.980;8.358;2024-01-06T12:27:52;48.32;43.16;57.11;;
72276;Laerm;61204;49.980;8.358;2024-01-06T12:30:23;47.56;42.81;56.47;;
72276;Laerm;61204;49.980;8.358;2024-01-06T12:32:51;51.95;41.94;65.29;;
72276;Laerm;61204;49.980;8.358;2024-01-06T12:35:18;49.88;43.20;63.08;;
72276;Laerm;61204;49.980;8.358;2024-01-06T12:37:47;49.63;44.68;59.24;;
72276;Laerm;61204;49.980;8.358;2024-01-06T12:40:16;47.33;43.82;55.65;;
72276;Laerm;61204;49.980;8.358;2024-01-06T12:42:45;52.20;43.94;63.01;;
72276;Laerm;61204;49.980;8.358;2024-01-06T12:45:11;50.79;44.68;62.01;;
72276;Laerm;61204;49.980;8.358;2024-01-06T12:47:38;48.85;42.13;57.87;;
72276;Laerm;61204;49.980;8.358;2024-01-06T12:50:05;50.65;43.41;62.36;;
72276;Laerm;61204;49.980;8.358;2024-01-06T12:52:31;47.71;43.14;67.47;;
72276;Laerm;61204;49.980;8.358;2024-01-06T12:54:59;51.84;43.69;74.17;;
72276;Laerm;61204;49.980;8.358;2024-01-06T12:57:24;54.90;45.47;65.51;;
72276;Laerm;61204;49.980;8.358;2024-01-06T12:59:50;49.10;44.37;57.89;;
72276;Laerm;61204;49.980;8.358;2024-01-06T13:02:18;51.81;44.14;63.55;;
72276;Laerm;61204;49.980;8.358;2024-01-06T13:04:46;49.23;45.63;71.10;;
72276;Laerm;61204;49.980;8.358;2024-01-06T13:07:11;52.99;45.53;61.73;;
72276;Laerm;61204;49.980;8.358;2024-01-06T13:09:38;52.93;45.89;84.76;;
72276;Laerm;61204;49.980;8.358;2024-01-06T13:12:05;51.22;44.03;62.50;;
72276;Laerm;61204;49.980;8.358;2024-01-06T13:14:31;49.52;44.36;58.22;;
72276;Laerm;61204;49.980;8.358;2024-01-06T13:16:57;48.39;45.06;54.90;;
72276;Laerm;61204;49.980;8.358;2024-01-06T13:19:23;52.34;44.58;64.35;;
72276;Laerm;61204;49.980;8.358;2024-01-06T13:21:49;52.41;45.46;63.90;;
72276;Laerm;61204;49.980;8.358;2024-01-06T13:24:14;50.11;43.93;58.84;;
72276;Laerm;61204;49.980;8.358;2024-01-06T13:26:40;50.29;44.84;59.01;;
72276;Laerm;61204;49.980;8.358;2024-01-06T13:29:06;49.30;44.02;59.84;;
72276;Laerm;61204;49.980;8.358;2024-01-06T13:31:32;47.25;43.19;56.29;;
72276;Laerm;61204;49.980;8.358;2024-01-06T13:33:58;49.98;43.45;62.93;;
72276;Laerm;61204;49.980;8.358;2024-01-06T13:36:23;47.57;43.13;57.26;;
72276;Laerm;61204;49.980;8.358;2024-01-06T13:38:50;48.69;42.81;57.78;;
72276;Laerm;61204;49.980;8.358;2024-01-06T13:41:17;49.60;42.94;60.56;;
72276;Laerm;61204;49.980;8.358;2024-01-06T13:43:43;48.57;43.55;65.18;;